sensor_id;sensor_type;location;lat;lon;timestamp;P1;durP1;ratioP1;P2;durP2;ratioP2
63087;SDS011;49173;43.164;27.786;2022-11-20T00:01:18;13.70;;;3.92;;
63087;SDS011;49173;43.164;27.786;2022-11-20T00:03:46;15.38;;;4.43;;
63087;SDS011;49173;43.164;27.786;2022-11-20T00:06:15;10.48;;;4.05;;
63087;SDS011;49173;43.164;27.786;2022-11-20T00:08:42;11.45;;;3.83;;
63087;SDS011;49173;43.164;27.786;2022-11-20T00:11:09;10.82;;;3.72;;
63087;SDS011;49173;43.164;27.786;2022-11-20T00:13:36;13.38;;;4.15;;
63087;SDS011;49173;43.164;27.786;2022-11-20T00:16:03;11.38;;;4.35;;
63087;SDS011;49173;43.164;27.786;2022-11-20T00:18:32;12.73;;;4.57;;
63087;SDS011;49173;43.164;27.786;2022-11-20T00:21:05;13.05;;;4.63;;
63087;SDS011;49173;43.164;27.786;2022-11-20T00:23:33;14.55;;;4.03;;
63087;SDS011;49173;43.164;27.786;2022-11-20T00:26:05;12.15;;;4.78;;
63087;SDS011;49173;43.164;27.786;2022-11-20T00:28:33;10.52;;;4.20;;
63087;SDS011;49173;43.164;27.786;2022-11-20T00:33:32;14.70;;;4.57;;
63087;SDS011;49173;43.164;27.786;2022-11-20T00:36:08;16.60;;;4.25;;
63087;SDS011;49173;43.164;27.786;2022-11-20T00:38:36;16.40;;;4.50;;
63087;SDS011;49173;43.164;27.786;2022-11-20T00:41:03;16.15;;;4.63;;
63087;SDS011;49173;43.164;27.786;2022-11-20T00:43:31;14.20;;;4.78;;
63087;SDS011;49173;43.164;27.786;2022-11-20T00:46:03;13.77;;;3.85;;
63087;SDS011;49173;43.164;27.786;2022-11-20T00:48:31;16.23;;;4.22;;
63087;SDS011;49173;43.164;27.786;2022-11-20T00:50:57;11.68;;;4.07;;
63087;SDS011;49173;43.164;27.786;2022-11-20T00:53:23;12.40;;;3.85;;
63087;SDS011;49173;43.164;27.786;2022-11-20T00:55:52;11.85;;;4.10;;
63087;SDS011;49173;43.164;27.786;2022-11-20T00:58:33;15.23;;;3.70;;
63087;SDS011;49173;43.164;27.786;2022-11-20T01:03:36;16.45;;;3.90;;
63087;SDS011;49173;43.164;27.786;2022-11-20T01:06:04;15.18;;;4.00;;
63087;SDS011;49173;43.164;27.786;2022-11-20T01:08:36;13.05;;;4.25;;
63087;SDS011;49173;43.164;27.786;2022-11-20T01:11:04;14.90;;;3.55;;
63087;SDS011;49173;43.164;27.786;2022-11-20T01:13:35;10.73;;;3.38;;
63087;SDS011;49173;43.164;27.786;2022-11-20T01:18:33;13.93;;;3.85;;
63087;SDS011;49173;43.164;27.786;2022-11-20T01:21:01;23.67;;;4.07;;
63087;SDS011;49173;43.164;27.786;2022-11-20T01:23:32;13.85;;;4.15;;
63087;SDS011;49173;43.164;27.786;2022-11-20T01:26:02;14.02;;;3.88;;
63087;SDS011;49173;43.164;27.786;2022-11-20T01:28:33;10.05;;;3.53;;
63087;SDS011;49173;43.164;27.786;2022-11-20T01:30:59;12.85;;;3.78;;
63087;SDS011;49173;43.164;27.786;2022-11-20T01:33:25;15.40;;;4.03;;
63087;SDS011;49173;43.164;27.786;2022-11-20T01:35:52;14.35;;;4.40;;
63087;SDS011;49173;43.164;27.786;2022-11-20T01:38:18;15.40;;;4.00;;
63087;SDS011;49173;43.164;27.786;2022-11-20T01:40:53;12.25;;;4.03;;
63087;SDS011;49173;43.164;27.786;2022-11-20T01:43:20;14.52;;;3.70;;
63087;SDS011;49173;43.164;27.786;2022-11-20T01:49:10;14.98;;;4.07;;
63087;SDS011;49173;43.164;27.786;2022-11-20T01:51:32;12.73;;;3.72;;
63087;SDS011;49173;43.164;27.786;2022-11-20T01:54:17;10.55;;;3.70;;
63087;SDS011;49173;43.164;27.786;2022-11-20T01:56:59;14.73;;;3.80;;
63087;SDS011;49173;43.164;27.786;2022-11-20T01:59:26;16.80;;;4.25;;
63087;SDS011;49173;43.164;27.786;2022-11-20T02:01:54;13.23;;;3.65;;
63087;SDS011;49173;43.164;27.786;2022-11-20T02:04:20;15.27;;;3.65;;
63087;SDS011;49173;43.164;27.786;2022-11-20T02:06:59;11.20;;;3.63;;
63087;SDS011;49173;43.164;27.786;2022-11-20T02:09:27;16.25;;;3.47;;
63087;SDS011;49173;43.164;27.786;2022-11-20T02:11:54;15.80;;;3.78;;
63087;SDS011;49173;43.164;27.786;2022-11-20T02:14:20;13.20;;;3.88;;
63087;SDS011;49173;43.164;27.786;2022-11-20T02:16:47;16.50;;;4.07;;
63087;SDS011;49173;43.164;27.786;2022-11-20T02:19:18;17.95;;;3.88;;
63087;SDS011;49173;43.164;27.786;2022-11-20T02:24:21;14.05;;;4.35;;
63087;SDS011;49173;43.164;27.786;2022-11-20T02:26:50;15.70;;;4.15;;
63087;SDS011;49173;43.164;27.786;2022-11-20T02:29:17;16.85;;;4.60;;
63087;SDS011;49173;43.164;27.786;2022-11-20T02:32:04;16.60;;;4.80;;
63087;SDS011;49173;43.164;27.786;2022-11-20T02:34:30;14.57;;;3.90;;
63087;SDS011;49173;43.164;27.786;2022-11-20T02:36:57;11.88;;;3.78;;
63087;SDS011;49173;43.164;27.786;2022-11-20T02:39:25;12.15;;;3.75;;
63087;SDS011;49173;43.164;27.786;2022-11-20T02:41:53;16.27;;;3.30;;
63087;SDS011;49173;43.164;27.786;2022-11-20T02:44:21;13.18;;;3.17;;
63087;SDS011;49173;43.164;27.786;2022-11-20T02:46:46;19.58;;;3.85;;
63087;SDS011;49173;43.164;27.786;2022-11-20T02:49:12;13.70;;;3.60;;
63087;SDS011;49173;43.164;27.786;2022-11-20T02:51:38;10.82;;;3.45;;
63087;SDS011;49173;43.164;27.786;2022-11-20T02:54:03;16.55;;;3.72;;
63087;SDS011;49173;43.164;27.786;2022-11-20T02:56:29;13.93;;;3.20;;
63087;SDS011;49173;43.164;27.786;2022-11-20T02:58:56;16.17;;;4.15;;
63087;SDS011;49173;43.164;27.786;2022-11-20T03:01:22;19.67;;;4.07;;
63087;SDS011;49173;43.164;27.786;2022-11-20T03:03:48;12.82;;;3.63;;
63087;SDS011;49173;43.164;27.786;2022-11-20T03:06:14;11.85;;;3.35;;
63087;SDS011;49173;43.164;27.786;2022-11-20T03:08:41;11.38;;;3.53;;
63087;SDS011;49173;43.164;27.786;2022-11-20T03:11:08;13.63;;;3.47;;
63087;SDS011;49173;43.164;27.786;2022-11-20T03:13:34;16.35;;;3.80;;
63087;SDS011;49173;43.164;27.786;2022-11-20T03:16:22;11.98;;;3.25;;
63087;SDS011;49173;43.164;27.786;2022-11-20T03:18:47;9.93;;;2.90;;
63087;SDS011;49173;43.164;27.786;2022-11-20T03:21:14;13.85;;;3.00;;
63087;SDS011;49173;43.164;27.786;2022-11-20T03:23:40;12.05;;;3.08;;
63087;SDS011;49173;43.164;27.786;2022-11-20T03:26:20;10.55;;;2.75;;
63087;SDS011;49173;43.164;27.786;2022-11-20T03:28:56;10.50;;;3.25;;
63087;SDS011;49173;43.164;27.786;2022-11-20T03:31:25;15.00;;;2.90;;
63087;SDS011;49173;43.164;27.786;2022-11-20T03:33:52;9.18;;;3.03;;
63087;SDS011;49173;43.164;27.786;2022-11-20T03:36:19;9.52;;;3.00;;
63087;SDS011;49173;43.164;27.786;2022-11-20T03:38:46;12.52;;;3.50;;
63087;SDS011;49173;43.164;27.786;2022-11-20T03:41:17;14.10;;;3.15;;
63087;SDS011;49173;43.164;27.786;2022-11-20T03:43:56;15.63;;;3.63;;
63087;SDS011;49173;43.164;27.786;2022-11-20T03:46:23;10.38;;;3.40;;
63087;SDS011;49173;43.164;27.786;2022-11-20T03:48:50;17.50;;;3.35;;
63087;SDS011;49173;43.164;27.786;2022-11-20T03:51:17;9.75;;;2.50;;
63087;SDS011;49173;43.164;27.786;2022-11-20T03:53:48;13.75;;;3.25;;
63087;SDS011;49173;43.164;27.786;2022-11-20T03:56:16;14.48;;;3.40;;
63087;SDS011;49173;43.164;27.786;2022-11-20T03:58:43;12.52;;;2.88;;
63087;SDS011;49173;43.164;27.786;2022-11-20T04:01:13;13.23;;;2.92;;
63087;SDS011;49173;43.164;27.786;2022-11-20T04:03:45;12.52;;;2.90;;
63087;SDS011;49173;43.164;27.786;2022-11-20T04:06:13;11.57;;;2.72;;
63087;SDS011;49173;43.164;27.786;2022-11-20T04:08:44;8.95;;;2.55;;
63087;SDS011;49173;43.164;27.786;2022-11-20T04:11:17;12.20;;;2.60;;
63087;SDS011;49173;43.164;27.786;2022-11-20T04:13:45;17.25;;;3.75;;
63087;SDS011;49173;43.164;27.786;2022-11-20T04:16:13;7.35;;;3.72;;
63087;SDS011;49173;43.164;27.786;2022-11-20T04:18:39;7.55;;;2.40;;
63087;SDS011;49173;43.164;27.786;2022-11-20T04:21:05;12.27;;;2.60;;
63087;SDS011;49173;43.164;27.786;2022-11-20T04:23:31;13.82;;;2.63;;
63087;SDS011;49173;43.164;27.786;2022-11-20T04:26:02;10.27;;;2.90;;
63087;SDS011;49173;43.164;27.786;2022-11-20T04:28:29;12.48;;;2.67;;
63087;SDS011;49173;43.164;27.786;2022-11-20T04:31:01;12.63;;;2.90;;
63087;SDS011;49173;43.164;27.786;2022-11-20T04:33:31;10.88;;;2.63;;
63087;SDS011;49173;43.164;27.786;2022-11-20T04:36:07;12.82;;;2.97;;
63087;SDS011;49173;43.164;27.786;2022-11-20T04:38:36;11.02;;;3.38;;
63087;SDS011;49173;43.164;27.786;2022-11-20T04:41:04;10.82;;;2.78;;
63087;SDS011;49173;43.164;27.786;2022-11-20T04:43:33;11.38;;;3.30;;
63087;SDS011;49173;43.164;27.786;2022-11-20T04:45:59;9.02;;;2.55;;
63087;SDS011;49173;43.164;27.786;2022-11-20T04:48:26;11.63;;;3.10;;
63087;SDS011;49173;43.164;27.786;2022-11-20T04:50:53;9.20;;;2.50;;
63087;SDS011;49173;43.164;27.786;2022-11-20T04:53:20;11.80;;;2.78;;
63087;SDS011;49173;43.164;27.786;2022-11-20T04:55:46;12.82;;;2.88;;
63087;SDS011;49173;43.164;27.786;2022-11-20T04:58:12;13.15;;;3.60;;
63087;SDS011;49173;43.164;27.786;2022-11-20T05:00:39;12.30;;;2.55;;
63087;SDS011;49173;43.164;27.786;2022-11-20T05:03:05;12.15;;;2.47;;
63087;SDS011;49173;43.164;27.786;2022-11-20T05:05:30;12.35;;;2.92;;
63087;SDS011;49173;43.164;27.786;2022-11-20T05:07:57;16.00;;;3.10;;
63087;SDS011;49173;43.164;27.786;2022-11-20T05:10:24;11.43;;;2.65;;
63087;SDS011;49173;43.164;27.786;2022-11-20T05:12:51;12.43;;;3.22;;
63087;SDS011;49173;43.164;27.786;2022-11-20T05:15:17;12.27;;;2.60;;
63087;SDS011;49173;43.164;27.786;2022-11-20T05:17:49;12.25;;;2.50;;
63087;SDS011;49173;43.164;27.786;2022-11-20T05:20:16;16.33;;;3.08;;
63087;SDS011;49173;43.164;27.786;2022-11-20T05:22:43;17.55;;;3.35;;
63087;SDS011;49173;43.164;27.786;2022-11-20T05:25:09;12.45;;;2.97;;
63087;SDS011;49173;43.164;27.786;2022-11-20T05:27:36;13.75;;;2.70;;
63087;SDS011;49173;43.164;27.786;2022-11-20T05:30:03;16.17;;;3.10;;
63087;SDS011;49173;43.164;27.786;2022-11-20T05:32:29;10.85;;;3.10;;
63087;SDS011;49173;43.164;27.786;2022-11-20T05:34:55;14.10;;;3.35;;
63087;SDS011;49173;43.164;27.786;2022-11-20T05:37:20;14.13;;;3.17;;
63087;SDS011;49173;43.164;27.786;2022-11-20T05:39:46;17.25;;;3.47;;
63087;SDS011;49173;43.164;27.786;2022-11-20T05:42:12;8.82;;;2.83;;
63087;SDS011;49173;43.164;27.786;2022-11-20T05:44:56;13.38;;;3.95;;
63087;SDS011;49173;43.164;27.786;2022-11-20T05:47:23;12.48;;;2.88;;
63087;SDS011;49173;43.164;27.786;2022-11-20T05:49:49;12.23;;;2.67;;
63087;SDS011;49173;43.164;27.786;2022-11-20T05:52:14;12.65;;;3.20;;
63087;SDS011;49173;43.164;27.786;2022-11-20T05:54:40;11.85;;;2.83;;
63087;SDS011;49173;43.164;27.786;2022-11-20T05:57:06;11.52;;;2.78;;
63087;SDS011;49173;43.164;27.786;2022-11-20T05:59:32;10.88;;;2.90;;
63087;SDS011;49173;43.164;27.786;2022-11-20T06:01:57;14.55;;;3.05;;
63087;SDS011;49173;43.164;27.786;2022-11-20T06:04:23;11.93;;;3.53;;
63087;SDS011;49173;43.164;27.786;2022-11-20T06:06:49;14.88;;;3.10;;
63087;SDS011;49173;43.164;27.786;2022-11-20T06:09:15;17.17;;;2.97;;
63087;SDS011;49173;43.164;27.786;2022-11-20T06:11:40;14.60;;;3.20;;
63087;SDS011;49173;43.164;27.786;2022-11-20T06:14:06;16.08;;;3.92;;
63087;SDS011;49173;43.164;27.786;2022-11-20T06:16:32;15.13;;;3.25;;
63087;SDS011;49173;43.164;27.786;2022-11-20T06:18:57;15.50;;;3.25;;
63087;SDS011;49173;43.164;27.786;2022-11-20T06:21:23;16.30;;;3.72;;
63087;SDS011;49173;43.164;27.786;2022-11-20T06:23:50;13.70;;;2.83;;
63087;SDS011;49173;43.164;27.786;2022-11-20T06:26:22;12.88;;;3.25;;
63087;SDS011;49173;43.164;27.786;2022-11-20T06:28:49;16.10;;;2.90;;
63087;SDS011;49173;43.164;27.786;2022-11-20T06:31:17;14.07;;;3.55;;
63087;SDS011;49173;43.164;27.786;2022-11-20T06:33:45;17.23;;;3.80;;
63087;SDS011;49173;43.164;27.786;2022-11-20T06:36:12;13.35;;;4.10;;
63087;SDS011;49173;43.164;27.786;2022-11-20T06:38:40;13.40;;;4.10;;
63087;SDS011;49173;43.164;27.786;2022-11-20T06:41:06;11.15;;;3.70;;
63087;SDS011;49173;43.164;27.786;2022-11-20T06:43:35;12.18;;;3.60;;
63087;SDS011;49173;43.164;27.786;2022-11-20T06:46:01;12.00;;;3.50;;
63087;SDS011;49173;43.164;27.786;2022-11-20T06:48:27;13.00;;;3.20;;
63087;SDS011;49173;43.164;27.786;2022-11-20T06:50:53;15.98;;;3.95;;
63087;SDS011;49173;43.164;27.786;2022-11-20T06:53:19;12.60;;;2.80;;
63087;SDS011;49173;43.164;27.786;2022-11-20T06:55:45;11.40;;;3.45;;
63087;SDS011;49173;43.164;27.786;2022-11-20T06:58:12;13.60;;;3.63;;
63087;SDS011;49173;43.164;27.786;2022-11-20T07:00:39;12.75;;;3.35;;
63087;SDS011;49173;43.164;27.786;2022-11-20T07:03:06;13.75;;;3.22;;
63087;SDS011;49173;43.164;27.786;2022-11-20T07:05:34;13.88;;;3.50;;
63087;SDS011;49173;43.164;27.786;2022-11-20T07:08:00;14.63;;;3.05;;
63087;SDS011;49173;43.164;27.786;2022-11-20T07:10:27;13.85;;;3.08;;
63087;SDS011;49173;43.164;27.786;2022-11-20T07:12:53;16.13;;;2.90;;
63087;SDS011;49173;43.164;27.786;2022-11-20T07:15:20;12.40;;;3.53;;
63087;SDS011;49173;43.164;27.786;2022-11-20T07:17:48;23.77;;;8.00;;
63087;SDS011;49173;43.164;27.786;2022-11-20T07:20:14;17.27;;;4.38;;
63087;SDS011;49173;43.164;27.786;2022-11-20T07:22:40;14.00;;;3.85;;
63087;SDS011;49173;43.164;27.786;2022-11-20T07:25:07;13.73;;;3.97;;
63087;SDS011;49173;43.164;27.786;2022-11-20T07:27:33;14.88;;;4.43;;
63087;SDS011;49173;43.164;27.786;2022-11-20T07:29:59;12.40;;;4.20;;
63087;SDS011;49173;43.164;27.786;2022-11-20T07:32:25;14.40;;;5.37;;
63087;SDS011;49173;43.164;27.786;2022-11-20T07:34:51;18.55;;;4.20;;
63087;SDS011;49173;43.164;27.786;2022-11-20T07:37:17;15.82;;;3.75;;
63087;SDS011;49173;43.164;27.786;2022-11-20T07:39:43;14.73;;;3.55;;
63087;SDS011;49173;43.164;27.786;2022-11-20T07:42:09;11.73;;;3.00;;
63087;SDS011;49173;43.164;27.786;2022-11-20T07:44:37;19.13;;;4.68;;
63087;SDS011;49173;43.164;27.786;2022-11-20T07:47:03;33.70;;;13.57;;
63087;SDS011;49173;43.164;27.786;2022-11-20T07:49:29;28.13;;;11.50;;
63087;SDS011;49173;43.164;27.786;2022-11-20T07:51:55;30.70;;;16.98;;
63087;SDS011;49173;43.164;27.786;2022-11-20T07:54:21;18.67;;;10.45;;
63087;SDS011;49173;43.164;27.786;2022-11-20T07:56:47;21.17;;;10.50;;
63087;SDS011;49173;43.164;27.786;2022-11-20T07:59:14;20.00;;;9.23;;
63087;SDS011;49173;43.164;27.786;2022-11-20T08:01:41;15.73;;;6.63;;
63087;SDS011;49173;43.164;27.786;2022-11-20T08:04:07;16.10;;;4.28;;
63087;SDS011;49173;43.164;27.786;2022-11-20T08:06:34;16.50;;;3.95;;
63087;SDS011;49173;43.164;27.786;2022-11-20T08:09:00;13.68;;;3.53;;
63087;SDS011;49173;43.164;27.786;2022-11-20T08:11:26;14.45;;;3.65;;
63087;SDS011;49173;43.164;27.786;2022-11-20T08:14:10;15.70;;;3.80;;
63087;SDS011;49173;43.164;27.786;2022-11-20T08:16:39;16.57;;;3.73;;
63087;SDS011;49173;43.164;27.786;2022-11-20T08:19:06;14.13;;;3.80;;
63087;SDS011;49173;43.164;27.786;2022-11-20T08:21:32;15.98;;;3.50;;
63087;SDS011;49173;43.164;27.786;2022-11-20T08:23:58;14.35;;;3.03;;
63087;SDS011;49173;43.164;27.786;2022-11-20T08:26:25;17.30;;;3.50;;
63087;SDS011;49173;43.164;27.786;2022-11-20T08:28:57;12.45;;;3.53;;
63087;SDS011;49173;43.164;27.786;2022-11-20T08:31:24;13.65;;;2.92;;
63087;SDS011;49173;43.164;27.786;2022-11-20T08:33:51;16.75;;;3.53;;
63087;SDS011;49173;43.164;27.786;2022-11-20T08:36:17;17.23;;;3.50;;
63087;SDS011;49173;43.164;27.786;2022-11-20T08:38:47;12.88;;;2.88;;
63087;SDS011;49173;43.164;27.786;2022-11-20T08:41:17;12.90;;;3.35;;
63087;SDS011;49173;43.164;27.786;2022-11-20T08:43:52;17.17;;;4.20;;
63087;SDS011;49173;43.164;27.786;2022-11-20T08:46:20;16.13;;;4.07;;
63087;SDS011;49173;43.164;27.786;2022-11-20T08:48:46;14.40;;;2.80;;
63087;SDS011;49173;43.164;27.786;2022-11-20T08:51:12;14.48;;;3.00;;
63087;SDS011;49173;43.164;27.786;2022-11-20T08:53:38;12.00;;;3.25;;
63087;SDS011;49173;43.164;27.786;2022-11-20T08:56:05;17.02;;;3.50;;
63087;SDS011;49173;43.164;27.786;2022-11-20T08:58:31;15.52;;;3.83;;
63087;SDS011;49173;43.164;27.786;2022-11-20T09:00:57;15.52;;;3.50;;
63087;SDS011;49173;43.164;27.786;2022-11-20T09:03:22;16.27;;;3.30;;
63087;SDS011;49173;43.164;27.786;2022-11-20T09:05:48;20.42;;;3.33;;
63087;SDS011;49173;43.164;27.786;2022-11-20T09:08:14;13.57;;;2.97;;
63087;SDS011;49173;43.164;27.786;2022-11-20T09:10:40;11.90;;;2.65;;
63087;SDS011;49173;43.164;27.786;2022-11-20T09:13:05;13.88;;;2.95;;
63087;SDS011;49173;43.164;27.786;2022-11-20T09:15:31;15.77;;;3.90;;
63087;SDS011;49173;43.164;27.786;2022-11-20T09:17:58;14.25;;;5.03;;
63087;SDS011;49173;43.164;27.786;2022-11-20T09:20:28;13.70;;;3.55;;
63087;SDS011;49173;43.164;27.786;2022-11-20T09:22:56;18.45;;;4.32;;
63087;SDS011;49173;43.164;27.786;2022-11-20T09:25:23;16.85;;;3.50;;
63087;SDS011;49173;43.164;27.786;2022-11-20T09:27:55;13.73;;;2.80;;
63087;SDS011;49173;43.164;27.786;2022-11-20T09:30:24;21.85;;;4.13;;
63087;SDS011;49173;43.164;27.786;2022-11-20T09:32:50;15.73;;;3.50;;
63087;SDS011;49173;43.164;27.786;2022-11-20T09:35:16;16.98;;;4.22;;
63087;SDS011;49173;43.164;27.786;2022-11-20T09:37:43;29.88;;;13.25;;
63087;SDS011;49173;43.164;27.786;2022-11-20T09:40:17;86.18;;;41.63;;
63087;SDS011;49173;43.164;27.786;2022-11-20T09:42:51;35.47;;;11.77;;
63087;SDS011;49173;43.164;27.786;2022-11-20T09:48:26;22.70;;;8.20;;
63087;SDS011;49173;43.164;27.786;2022-11-20T09:54:06;25.27;;;7.55;;
63087;SDS011;49173;43.164;27.786;2022-11-20T09:56:41;25.08;;;9.50;;
63087;SDS011;49173;43.164;27.786;2022-11-20T09:59:33;28.30;;;6.55;;
63087;SDS011;49173;43.164;27.786;2022-11-20T10:02:22;29.58;;;11.02;;
63087;SDS011;49173;43.164;27.786;2022-11-20T10:05:02;17.83;;;5.28;;
63087;SDS011;49173;43.164;27.786;2022-11-20T10:07:52;20.50;;;7.72;;
63087;SDS011;49173;43.164;27.786;2022-11-20T10:10:36;20.02;;;5.80;;
63087;SDS011;49173;43.164;27.786;2022-11-20T10:16:02;19.23;;;5.03;;
63087;SDS011;49173;43.164;27.786;2022-11-20T10:18:53;20.58;;;5.47;;
63087;SDS011;49173;43.164;27.786;2022-11-20T10:21:41;22.25;;;6.00;;
63087;SDS011;49173;43.164;27.786;2022-11-20T10:24:52;26.63;;;7.60;;
63087;SDS011;49173;43.164;27.786;2022-11-20T10:27:41;14.27;;;4.05;;
63087;SDS011;49173;43.164;27.786;2022-11-20T10:30:16;17.42;;;3.08;;
63087;SDS011;49173;43.164;27.786;2022-11-20T10:32:48;13.68;;;2.97;;
63087;SDS011;49173;43.164;27.786;2022-11-20T10:35:40;10.20;;;3.00;;
63087;SDS011;49173;43.164;27.786;2022-11-20T10:38:18;15.73;;;3.53;;
63087;SDS011;49173;43.164;27.786;2022-11-20T10:40:54;13.38;;;3.30;;
63087;SDS011;49173;43.164;27.786;2022-11-20T10:43:44;16.73;;;3.92;;
63087;SDS011;49173;43.164;27.786;2022-11-20T10:46:15;18.30;;;4.90;;
63087;SDS011;49173;43.164;27.786;2022-11-20T10:48:45;19.70;;;6.10;;
63087;SDS011;49173;43.164;27.786;2022-11-20T10:54:32;18.95;;;4.20;;
63087;SDS011;49173;43.164;27.786;2022-11-20T10:57:13;22.40;;;5.30;;
63087;SDS011;49173;43.164;27.786;2022-11-20T11:03:00;14.73;;;3.67;;
63087;SDS011;49173;43.164;27.786;2022-11-20T11:07:54;17.90;;;4.38;;
63087;SDS011;49173;43.164;27.786;2022-11-20T11:10:24;14.38;;;2.95;;
63087;SDS011;49173;43.164;27.786;2022-11-20T11:13:24;19.33;;;4.07;;
63087;SDS011;49173;43.164;27.786;2022-11-20T11:15:52;18.10;;;3.67;;
63087;SDS011;49173;43.164;27.786;2022-11-20T11:18:25;16.27;;;3.35;;
63087;SDS011;49173;43.164;27.786;2022-11-20T11:20:54;14.82;;;3.88;;
63087;SDS011;49173;43.164;27.786;2022-11-20T11:23:34;15.95;;;3.88;;
63087;SDS011;49173;43.164;27.786;2022-11-20T11:26:05;18.73;;;3.97;;
63087;SDS011;49173;43.164;27.786;2022-11-20T11:28:52;20.15;;;4.03;;
63087;SDS011;49173;43.164;27.786;2022-11-20T11:31:37;15.07;;;4.07;;
63087;SDS011;49173;43.164;27.786;2022-11-20T11:34:03;20.38;;;4.35;;
63087;SDS011;49173;43.164;27.786;2022-11-20T11:36:34;13.80;;;4.18;;
63087;SDS011;49173;43.164;27.786;2022-11-20T11:39:01;16.30;;;5.43;;
63087;SDS011;49173;43.164;27.786;2022-11-20T11:41:31;17.27;;;5.13;;
63087;SDS011;49173;43.164;27.786;2022-11-20T11:44:47;16.20;;;4.05;;
63087;SDS011;49173;43.164;27.786;2022-11-20T11:47:52;13.82;;;4.43;;
63087;SDS011;49173;43.164;27.786;2022-11-20T11:50:25;14.00;;;3.65;;
63087;SDS011;49173;43.164;27.786;2022-11-20T11:58:22;17.77;;;3.83;;
63087;SDS011;49173;43.164;27.786;2022-11-20T12:01:07;24.40;;;4.07;;
63087;SDS011;49173;43.164;27.786;2022-11-20T12:03:54;19.55;;;4.07;;
63087;SDS011;49173;43.164;27.786;2022-11-20T12:06:27;24.25;;;3.80;;
63087;SDS011;49173;43.164;27.786;2022-11-20T12:09:01;23.63;;;4.43;;
63087;SDS011;49173;43.164;27.786;2022-11-20T12:17:03;25.75;;;5.38;;
63087;SDS011;49173;43.164;27.786;2022-11-20T12:19:30;22.17;;;4.75;;
63087;SDS011;49173;43.164;27.786;2022-11-20T12:38:34;20.95;;;4.72;;
63087;SDS011;49173;43.164;27.786;2022-11-20T12:43:30;31.75;;;4.72;;
63087;SDS011;49173;43.164;27.786;2022-11-20T12:58:10;19.48;;;5.28;;
63087;SDS011;49173;43.164;27.786;2022-11-20T13:00:47;26.30;;;4.63;;
63087;SDS011;49173;43.164;27.786;2022-11-20T13:03:27;26.90;;;4.45;;
63087;SDS011;49173;43.164;27.786;2022-11-20T13:08:41;24.65;;;4.47;;
63087;SDS011;49173;43.164;27.786;2022-11-20T13:14:24;22.73;;;4.72;;
63087;SDS011;49173;43.164;27.786;2022-11-20T13:19:53;22.15;;;5.05;;
63087;SDS011;49173;43.164;27.786;2022-11-20T13:27:47;28.95;;;7.40;;
63087;SDS011;49173;43.164;27.786;2022-11-20T13:30:18;23.13;;;5.85;;
63087;SDS011;49173;43.164;27.786;2022-11-20T13:33:28;29.95;;;5.38;;
63087;SDS011;49173;43.164;27.786;2022-11-20T13:36:03;30.75;;;4.75;;
63087;SDS011;49173;43.164;27.786;2022-11-20T13:38:47;33.05;;;6.28;;
63087;SDS011;49173;43.164;27.786;2022-11-20T13:41:24;30.98;;;5.57;;
63087;SDS011;49173;43.164;27.786;2022-11-20T13:46:37;23.25;;;5.13;;
63087;SDS011;49173;43.164;27.786;2022-11-20T13:49:09;25.15;;;5.35;;
63087;SDS011;49173;43.164;27.786;2022-11-20T13:54:52;26.45;;;5.53;;
63087;SDS011;49173;43.164;27.786;2022-11-20T14:00:30;22.48;;;4.28;;
63087;SDS011;49173;43.164;27.786;2022-11-20T14:05:38;32.85;;;5.80;;
63087;SDS011;49173;43.164;27.786;2022-11-20T14:08:14;25.02;;;5.57;;
63087;SDS011;49173;43.164;27.786;2022-11-20T14:10:50;25.58;;;5.82;;
63087;SDS011;49173;43.164;27.786;2022-11-20T14:13:20;27.60;;;5.60;;
63087;SDS011;49173;43.164;27.786;2022-11-20T14:15:46;27.73;;;5.22;;
63087;SDS011;49173;43.164;27.786;2022-11-20T14:18:13;29.85;;;7.82;;
63087;SDS011;49173;43.164;27.786;2022-11-20T14:20:51;37.65;;;12.25;;
63087;SDS011;49173;43.164;27.786;2022-11-20T14:23:26;31.95;;;9.15;;
63087;SDS011;49173;43.164;27.786;2022-11-20T14:25:53;39.00;;;8.30;;
63087;SDS011;49173;43.164;27.786;2022-11-20T14:28:27;51.85;;;22.55;;
63087;SDS011;49173;43.164;27.786;2022-11-20T14:30:54;33.55;;;11.50;;
63087;SDS011;49173;43.164;27.786;2022-11-20T14:33:21;29.25;;;7.97;;
63087;SDS011;49173;43.164;27.786;2022-11-20T14:35:53;27.73;;;6.28;;
63087;SDS011;49173;43.164;27.786;2022-11-20T14:38:27;27.10;;;7.40;;
63087;SDS011;49173;43.164;27.786;2022-11-20T14:41:14;44.10;;;14.52;;
63087;SDS011;49173;43.164;27.786;2022-11-20T14:43:45;39.50;;;7.95;;
63087;SDS011;49173;43.164;27.786;2022-11-20T14:46:22;31.58;;;7.95;;
63087;SDS011;49173;43.164;27.786;2022-11-20T14:48:50;26.30;;;5.82;;
63087;SDS011;49173;43.164;27.786;2022-11-20T14:51:31;33.42;;;6.80;;
63087;SDS011;49173;43.164;27.786;2022-11-20T14:54:19;31.98;;;5.97;;
63087;SDS011;49173;43.164;27.786;2022-11-20T14:56:57;39.75;;;6.45;;
63087;SDS011;49173;43.164;27.786;2022-11-20T14:59:31;27.80;;;5.43;;
63087;SDS011;49173;43.164;27.786;2022-11-20T15:02:00;35.65;;;6.93;;
63087;SDS011;49173;43.164;27.786;2022-11-20T15:06:55;27.08;;;7.05;;
63087;SDS011;49173;43.164;27.786;2022-11-20T15:09:22;51.88;;;12.13;;
63087;SDS011;49173;43.164;27.786;2022-11-20T15:11:52;34.03;;;8.63;;
63087;SDS011;49173;43.164;27.786;2022-11-20T15:14:27;33.42;;;7.35;;
63087;SDS011;49173;43.164;27.786;2022-11-20T15:16:55;40.90;;;10.43;;
63087;SDS011;49173;43.164;27.786;2022-11-20T15:19:22;36.03;;;10.35;;
63087;SDS011;49173;43.164;27.786;2022-11-20T15:21:50;34.17;;;8.68;;
63087;SDS011;49173;43.164;27.786;2022-11-20T15:24:16;33.78;;;7.47;;
63087;SDS011;49173;43.164;27.786;2022-11-20T15:26:42;45.92;;;9.93;;
63087;SDS011;49173;43.164;27.786;2022-11-20T15:29:10;38.47;;;7.50;;
63087;SDS011;49173;43.164;27.786;2022-11-20T15:31:37;32.35;;;6.78;;
63087;SDS011;49173;43.164;27.786;2022-11-20T15:34:11;44.05;;;10.25;;
63087;SDS011;49173;43.164;27.786;2022-11-20T15:36:39;38.08;;;9.60;;
63087;SDS011;49173;43.164;27.786;2022-11-20T15:39:05;52.80;;;14.15;;
63087;SDS011;49173;43.164;27.786;2022-11-20T15:41:35;46.05;;;9.93;;
63087;SDS011;49173;43.164;27.786;2022-11-20T15:44:01;32.58;;;8.27;;
63087;SDS011;49173;43.164;27.786;2022-11-20T15:46:29;30.80;;;6.53;;
63087;SDS011;49173;43.164;27.786;2022-11-20T15:49:03;41.08;;;6.60;;
63087;SDS011;49173;43.164;27.786;2022-11-20T15:51:37;38.05;;;6.30;;
63087;SDS011;49173;43.164;27.786;2022-11-20T15:54:11;31.05;;;7.40;;
63087;SDS011;49173;43.164;27.786;2022-11-20T15:56:43;36.60;;;7.05;;
63087;SDS011;49173;43.164;27.786;2022-11-20T15:59:09;35.67;;;6.78;;
63087;SDS011;49173;43.164;27.786;2022-11-20T16:01:34;42.80;;;7.63;;
63087;SDS011;49173;43.164;27.786;2022-11-20T16:04:01;34.88;;;6.60;;
63087;SDS011;49173;43.164;27.786;2022-11-20T16:06:27;36.28;;;6.45;;
63087;SDS011;49173;43.164;27.786;2022-11-20T16:08:53;28.95;;;6.68;;
63087;SDS011;49173;43.164;27.786;2022-11-20T16:11:19;27.23;;;7.57;;
63087;SDS011;49173;43.164;27.786;2022-11-20T16:13:45;35.30;;;7.00;;
63087;SDS011;49173;43.164;27.786;2022-11-20T16:16:30;31.77;;;7.55;;
63087;SDS011;49173;43.164;27.786;2022-11-20T16:19:00;28.85;;;6.45;;
63087;SDS011;49173;43.164;27.786;2022-11-20T16:21:28;40.67;;;7.10;;